Terminal Aerodrome Forecast
Issued by NWS

Home | Current Version | Previous Version | Text Only | Print | Product List | Glossary On
Versions: 1 2 3 4 5 6 7 8 9 10 11 12 13 14 15 16 17 18 19 20 21 22 23 24 25 26 27
776
FTUS43 KDTX 280521
TAFDET
TAF
KDET 280521Z 2806/2906 36008KT P6SM SCT030 OVC040
     FM280800 03008KT 6SM BR OVC007
     FM281400 35010KT P6SM OVC016
     FM281900 35009KT P6SM OVC022
     FM290200 03006KT P6SM SKC=

USA.gov is the U.S. government's official web portal to all federal, state and local government web resources and services.